createdAt,value
2023-01-06T00:00:38.794Z,8.63
2023-01-06T00:01:41.441Z,8.93
2023-01-06T00:02:43.195Z,9.05
2023-01-06T00:03:49.898Z,9.08
2023-01-06T00:04:52.861Z,8.93
2023-01-06T00:05:58.916Z,8.54
2023-01-06T00:07:00.483Z,8.62
2023-01-06T00:08:03.198Z,8.83
2023-01-06T00:09:06.192Z,8.72
2023-01-06T00:10:09.427Z,8.90
2023-01-06T00:11:13.880Z,9.14
2023-01-06T00:12:16.415Z,9.22
2023-01-06T00:13:17.965Z,9.38
2023-01-06T00:14:20.410Z,9.57
2023-01-06T00:15:21.979Z,9.72
2023-01-06T00:16:25.023Z,9.80
2023-01-06T00:17:26.548Z,9.48
2023-01-06T00:18:29.057Z,9.54
2023-01-06T00:19:30.547Z,9.67
2023-01-06T00:20:34.608Z,9.78
2023-01-06T00:21:36.127Z,9.65
2023-01-06T00:22:42.768Z,9.76
2023-01-06T00:23:45.290Z,9.85
2023-01-06T00:24:46.797Z,9.88
2023-01-06T00:25:52.589Z,9.79
2023-01-06T00:26:54.178Z,9.67
2023-01-06T00:27:57.317Z,9.73
2023-01-06T00:28:59.765Z,9.85
2023-01-06T00:30:01.500Z,9.94
2023-01-06T00:31:08.151Z,9.93
2023-01-06T00:32:09.776Z,9.99
2023-01-06T00:33:12.377Z,10.08
2023-01-06T00:34:13.977Z,9.73
2023-01-06T00:35:16.737Z,9.48
2023-01-06T00:36:21.673Z,9.07
2023-01-06T00:37:24.151Z,8.86
2023-01-06T00:38:25.699Z,8.41
2023-01-06T00:39:28.125Z,7.95
2023-01-06T00:40:29.627Z,7.91
2023-01-06T00:41:50.034Z,7.58
2023-01-06T00:42:52.488Z,7.48
2023-01-06T00:43:54.139Z,7.55
2023-01-06T00:44:56.625Z,7.93
2023-01-06T00:45:58.189Z,7.85
2023-01-06T00:47:01.034Z,8.04
2023-01-06T00:48:03.474Z,7.99
2023-01-06T00:49:07.142Z,8.19
2023-01-06T00:50:10.607Z,8.56
2023-01-06T00:51:12.109Z,8.82
2023-01-06T00:52:16.230Z,8.98
2023-01-06T00:53:17.771Z,9.24
2023-01-06T00:54:20.982Z,9.42
2023-01-06T00:55:22.626Z,9.53
2023-01-06T00:56:25.080Z,9.49
2023-01-06T00:57:27.210Z,9.47
2023-01-06T00:58:31.206Z,9.70
2023-01-06T00:59:32.738Z,9.66
2023-01-06T01:00:35.241Z,9.46
2023-01-06T01:01:37.203Z,9.20
2023-01-06T01:02:39.931Z,9.33
2023-01-06T01:03:41.941Z,9.20
2023-01-06T01:04:44.458Z,9.36
2023-01-06T01:05:45.947Z,9.53
2023-01-06T01:06:49.359Z,9.63
2023-01-06T01:07:53.097Z,9.80
2023-01-06T01:08:55.970Z,9.87
2023-01-06T01:09:58.415Z,9.82
2023-01-06T01:11:04.088Z,9.86
2023-01-06T01:12:13.072Z,9.99
2023-01-06T01:13:14.548Z,10.10
2023-01-06T01:14:19.007Z,10.07
2023-01-06T01:15:22.437Z,10.25
2023-01-06T01:16:23.961Z,10.26
2023-01-06T01:17:28.739Z,10.23
2023-01-06T01:18:30.477Z,10.19
2023-01-06T01:19:33.151Z,9.78
2023-01-06T01:20:35.913Z,9.98
2023-01-06T01:21:37.997Z,9.91
2023-01-06T01:22:40.458Z,9.97
2023-01-06T01:23:43.265Z,10.02
2023-01-06T01:24:45.876Z,9.95
2023-01-06T01:25:47.415Z,10.11
2023-01-06T01:26:50.302Z,10.17
2023-01-06T01:27:52.989Z,10.10
2023-01-06T01:28:54.475Z,10.10
2023-01-06T01:29:56.946Z,9.95
2023-01-06T01:30:59.418Z,9.74
2023-01-06T01:32:02.046Z,9.88
2023-01-06T01:33:03.596Z,10.10
2023-01-06T01:34:06.089Z,10.09
2023-01-06T01:35:09.114Z,10.26
2023-01-06T01:36:13.598Z,10.03
2023-01-06T01:37:16.168Z,10.09
2023-01-06T01:38:17.781Z,10.15
2023-01-06T01:39:24.692Z,10.03
2023-01-06T01:40:26.385Z,10.00
2023-01-06T01:41:30.011Z,10.18
2023-01-06T01:42:32.514Z,9.98
2023-01-06T01:43:44.258Z,10.22
2023-01-06T01:45:01.880Z,10.11
2023-01-06T01:46:03.462Z,10.24
2023-01-06T01:47:06.159Z,10.10
2023-01-06T01:48:16.812Z,10.16
2023-01-06T01:49:23.541Z,10.21
2023-01-06T01:50:32.269Z,10.40
2023-01-06T01:51:39.398Z,10.44
2023-01-06T01:52:43.866Z,10.57
2023-01-06T01:53:48.469Z,10.66
2023-01-06T01:54:54.251Z,10.73
2023-01-06T01:55:58.747Z,10.74
2023-01-06T01:57:05.005Z,10.83
2023-01-06T01:58:10.982Z,10.80
2023-01-06T01:59:16.237Z,10.80
2023-01-06T02:00:19.950Z,10.75
2023-01-06T02:01:21.543Z,10.83
2023-01-06T02:02:25.057Z,10.86
2023-01-06T02:03:28.498Z,10.81
2023-01-06T02:04:34.479Z,10.89
2023-01-06T02:05:40.466Z,10.94
2023-01-06T02:06:42.302Z,10.85
2023-01-06T02:07:45.043Z,10.93
2023-01-06T02:08:54.613Z,10.97
2023-01-06T02:10:06.776Z,10.98
2023-01-06T02:11:10.536Z,10.89
2023-01-06T02:12:12.338Z,10.93
2023-01-06T02:13:14.878Z,10.92
2023-01-06T02:14:19.525Z,10.95
2023-01-06T02:15:25.561Z,10.95
2023-01-06T02:16:34.947Z,11.04
2023-01-06T02:17:51.390Z,10.88
2023-01-06T02:18:59.648Z,10.77
2023-01-06T02:20:30.857Z,10.87
2023-01-06T02:21:42.786Z,10.65
2023-01-06T02:23:04.130Z,10.68
2023-01-06T02:24:45.120Z,10.76
2023-01-06T02:26:44.619Z,10.46
2023-01-06T02:28:20.914Z,10.06
2023-01-06T02:29:52.687Z,10.25
2023-01-06T02:31:27.807Z,10.19
2023-01-06T02:32:40.833Z,10.33
2023-01-06T02:33:49.841Z,10.00
2023-01-06T02:35:01.777Z,9.54
2023-01-06T02:36:18.004Z,8.96
2023-01-06T02:37:33.488Z,8.72
2023-01-06T02:38:48.410Z,9.11
2023-01-06T02:40:04.870Z,9.39
2023-01-06T02:41:23.059Z,9.64
2023-01-06T02:42:35.351Z,9.50
2023-01-06T02:43:47.391Z,9.31
2023-01-06T02:45:04.028Z,9.61
2023-01-06T02:46:15.536Z,9.66
2023-01-06T02:47:22.573Z,9.31
2023-01-06T02:48:33.304Z,9.39
2023-01-06T02:49:45.934Z,9.40
2023-01-06T02:50:56.585Z,9.49
2023-01-06T02:52:03.525Z,9.78
2023-01-06T02:53:10.726Z,9.94
2023-01-06T02:54:21.276Z,9.89
2023-01-06T02:55:29.404Z,9.92
2023-01-06T02:56:38.094Z,10.05
2023-01-06T02:57:45.527Z,10.01
2023-01-06T02:58:54.086Z,10.08
2023-01-06T03:00:01.448Z,10.11
2023-01-06T03:01:08.389Z,10.18
2023-01-06T03:02:11.295Z,10.23
2023-01-06T03:03:17.852Z,9.68
2023-01-06T03:04:24.787Z,9.87
2023-01-06T03:05:29.113Z,9.68
2023-01-06T03:06:34.028Z,9.57
2023-01-06T03:07:38.473Z,9.72
2023-01-06T03:08:41.101Z,9.61
2023-01-06T03:09:44.733Z,9.81
2023-01-06T03:10:47.539Z,9.67
2023-01-06T03:11:52.106Z,9.81
2023-01-06T03:12:59.792Z,9.73
2023-01-06T03:14:07.506Z,9.83
2023-01-06T03:15:10.267Z,10.04
2023-01-06T03:16:13.319Z,10.00
2023-01-06T03:17:14.961Z,10.17
2023-01-06T03:18:18.044Z,10.19
2023-01-06T03:19:21.327Z,10.21
2023-01-06T03:20:24.106Z,10.06
2023-01-06T03:21:30.592Z,10.03
2023-01-06T03:22:38.786Z,10.10
2023-01-06T03:23:42.495Z,10.23
2023-01-06T03:24:45.328Z,10.28
2023-01-06T03:25:47.823Z,10.35
2023-01-06T03:26:52.320Z,10.50
2023-01-06T03:27:54.839Z,10.11
2023-01-06T03:28:56.505Z,10.26
2023-01-06T03:29:59.403Z,10.44
2023-01-06T03:31:09.507Z,10.12
2023-01-06T03:32:20.091Z,10.13
2023-01-06T03:33:28.288Z,10.25
2023-01-06T03:34:45.239Z,10.20
2023-01-06T03:36:00.341Z,10.02
2023-01-06T03:37:10.748Z,10.04
2023-01-06T03:38:21.960Z,9.67
2023-01-06T03:39:32.125Z,9.65
2023-01-06T03:40:40.638Z,9.64
2023-01-06T03:42:05.748Z,9.57
2023-01-06T03:43:12.304Z,9.44
2023-01-06T03:44:20.904Z,9.64
2023-01-06T03:45:40.160Z,9.78
2023-01-06T03:46:51.977Z,9.87
2023-01-06T03:47:59.812Z,9.90
2023-01-06T03:49:08.265Z,9.97
2023-01-06T03:50:17.315Z,10.04
2023-01-06T03:51:31.600Z,9.81
2023-01-06T03:52:39.501Z,9.80
2023-01-06T03:53:47.825Z,10.09
2023-01-06T03:54:57.691Z,10.28
2023-01-06T03:56:10.384Z,10.27
2023-01-06T03:57:15.302Z,10.08
2023-01-06T03:58:20.518Z,10.35
2023-01-06T03:59:26.442Z,10.23
2023-01-06T04:00:32.708Z,10.32
2023-01-06T04:01:34.467Z,10.43
2023-01-06T04:02:38.726Z,10.03
2023-01-06T04:03:44.791Z,9.93
2023-01-06T04:05:01.490Z,10.07
2023-01-06T04:06:05.726Z,10.08
2023-01-06T04:07:07.333Z,10.01
2023-01-06T04:08:09.877Z,10.18
2023-01-06T04:09:11.680Z,10.15
2023-01-06T04:10:15.914Z,9.88
2023-01-06T04:11:37.759Z,9.92
2023-01-06T04:12:39.597Z,10.15
2023-01-06T04:13:42.235Z,10.25
2023-01-06T04:14:43.727Z,10.38
2023-01-06T04:15:46.169Z,10.53
2023-01-06T04:16:47.673Z,10.38
2023-01-06T04:17:50.770Z,10.41
2023-01-06T04:18:52.420Z,10.45
2023-01-06T04:19:54.930Z,10.56
2023-01-06T04:20:56.399Z,10.53
2023-01-06T04:22:00.196Z,10.46
2023-01-06T04:23:01.746Z,10.34
2023-01-06T04:24:04.468Z,10.29
2023-01-06T04:25:07.173Z,10.29
2023-01-06T04:26:09.648Z,10.38
2023-01-06T04:27:11.156Z,10.47
2023-01-06T04:28:13.564Z,10.23
2023-01-06T04:29:15.101Z,10.14
2023-01-06T04:30:18.006Z,10.36
2023-01-06T04:31:19.618Z,10.40
2023-01-06T04:32:22.183Z,10.25
2023-01-06T04:33:23.878Z,10.21
2023-01-06T04:34:26.315Z,10.11
2023-01-06T04:35:28.749Z,10.16
2023-01-06T04:36:31.315Z,10.36
2023-01-06T04:37:34.420Z,10.18
2023-01-06T04:38:36.949Z,10.17
2023-01-06T04:39:38.459Z,10.30
2023-01-06T04:40:42.379Z,10.36
2023-01-06T04:41:44.005Z,10.41
2023-01-06T04:43:04.498Z,10.39
2023-01-06T04:44:07.144Z,10.47
2023-01-06T04:45:09.192Z,10.29
2023-01-06T04:46:11.733Z,10.38
2023-01-06T04:47:13.243Z,10.29
2023-01-06T04:48:15.707Z,10.44
2023-01-06T04:49:17.216Z,10.44
2023-01-06T04:50:19.768Z,10.47
2023-01-06T04:51:21.301Z,10.55
2023-01-06T04:52:23.757Z,10.65
2023-01-06T04:53:26.595Z,10.81
2023-01-06T04:54:29.102Z,10.62
2023-01-06T04:55:31.704Z,10.75
2023-01-06T04:56:33.203Z,10.59
2023-01-06T04:57:35.655Z,10.67
2023-01-06T04:58:37.821Z,10.47
2023-01-06T04:59:40.288Z,10.60
2023-01-06T05:00:41.816Z,10.66
2023-01-06T05:01:44.405Z,10.78
2023-01-06T05:02:46.300Z,10.79
2023-01-06T05:03:48.955Z,10.75
2023-01-06T05:04:50.456Z,10.83
2023-01-06T05:05:52.867Z,10.86
2023-01-06T05:06:54.385Z,10.73
2023-01-06T05:07:56.969Z,10.36
2023-01-06T05:08:59.826Z,10.44
2023-01-06T05:10:02.333Z,10.53
2023-01-06T05:11:06.049Z,10.47
2023-01-06T05:12:08.998Z,10.18
2023-01-06T05:13:10.551Z,9.95
2023-01-06T05:14:13.154Z,9.92
2023-01-06T05:15:14.893Z,9.86
2023-01-06T05:16:21.784Z,10.03
2023-01-06T05:17:24.362Z,10.06
2023-01-06T05:18:25.888Z,9.94
2023-01-06T05:19:28.397Z,10.04
2023-01-06T05:20:29.945Z,10.01
2023-01-06T05:21:33.119Z,10.19
2023-01-06T05:22:34.672Z,10.37
2023-01-06T05:23:37.288Z,10.43
2023-01-06T05:24:41.058Z,10.55
2023-01-06T05:25:42.644Z,10.57
2023-01-06T05:26:45.073Z,10.61
2023-01-06T05:27:46.582Z,10.58
2023-01-06T05:28:49.627Z,10.63
2023-01-06T05:29:51.136Z,10.75
2023-01-06T05:30:53.974Z,10.80
2023-01-06T05:31:55.620Z,10.70
2023-01-06T05:32:58.025Z,10.57
2023-01-06T05:34:00.465Z,10.67
2023-01-06T05:35:01.985Z,10.82
2023-01-06T05:36:06.784Z,10.90
2023-01-06T05:37:08.309Z,10.97
2023-01-06T05:38:10.770Z,11.00
2023-01-06T05:39:12.309Z,11.12
2023-01-06T05:40:16.232Z,11.17
2023-01-06T05:41:17.730Z,11.12
2023-01-06T05:42:20.203Z,11.19
2023-01-06T05:43:21.714Z,11.22
2023-01-06T05:44:24.256Z,11.11
2023-01-06T05:45:26.113Z,11.10
2023-01-06T05:46:28.676Z,11.18
2023-01-06T05:47:30.210Z,11.20
2023-01-06T05:48:32.651Z,11.18
2023-01-06T05:49:35.159Z,11.09
2023-01-06T05:50:36.681Z,11.15
2023-01-06T05:51:39.188Z,11.16
2023-01-06T05:52:40.855Z,10.87
2023-01-06T05:53:45.198Z,11.02
2023-01-06T05:54:46.892Z,10.86
2023-01-06T05:55:50.651Z,11.05
2023-01-06T05:56:52.155Z,11.05
2023-01-06T05:57:54.667Z,11.06
2023-01-06T05:58:56.324Z,11.15
2023-01-06T05:59:58.956Z,11.05
2023-01-06T06:01:00.849Z,11.25
2023-01-06T06:02:03.338Z,11.31
2023-01-06T06:03:04.994Z,11.28
2023-01-06T06:04:07.534Z,11.30
2023-01-06T06:05:09.375Z,11.02
2023-01-06T06:06:12.406Z,11.07
2023-01-06T06:07:13.968Z,11.21
2023-01-06T06:08:16.464Z,11.29
2023-01-06T06:09:18.920Z,11.34
2023-01-06T06:10:20.463Z,11.21
2023-01-06T06:11:24.224Z,11.36
2023-01-06T06:12:25.765Z,11.40
2023-01-06T06:13:28.204Z,11.41
2023-01-06T06:14:30.692Z,11.48
2023-01-06T06:15:33.122Z,11.49
2023-01-06T06:16:35.154Z,11.55
2023-01-06T06:17:37.737Z,11.32
2023-01-06T06:18:42.859Z,11.22
2023-01-06T06:19:45.350Z,10.96
2023-01-06T06:20:46.842Z,11.06
2023-01-06T06:21:49.325Z,10.89
2023-01-06T06:22:50.817Z,10.94
2023-01-06T06:23:53.783Z,10.76
2023-01-06T06:24:56.274Z,10.79
2023-01-06T06:25:57.959Z,10.43
2023-01-06T06:27:01.885Z,10.56
2023-01-06T06:28:03.385Z,10.46
2023-01-06T06:29:06.885Z,10.49
2023-01-06T06:30:09.092Z,10.56
2023-01-06T06:31:13.894Z,10.44
2023-01-06T06:32:15.440Z,10.39
2023-01-06T06:33:17.916Z,10.41
2023-01-06T06:34:19.532Z,10.52
2023-01-06T06:35:21.998Z,10.77
2023-01-06T06:36:25.022Z,10.75
2023-01-06T06:37:26.542Z,10.61
2023-01-06T06:38:29.409Z,10.39
2023-01-06T06:39:30.939Z,10.31
2023-01-06T06:40:33.394Z,10.39
2023-01-06T06:41:35.878Z,10.51
2023-01-06T06:42:38.719Z,10.46
2023-01-06T06:43:41.494Z,10.53
2023-01-06T06:44:43.008Z,10.72
2023-01-06T06:45:45.567Z,10.85
2023-01-06T06:46:50.082Z,10.86
2023-01-06T06:47:53.640Z,10.78
2023-01-06T06:48:56.181Z,10.50
2023-01-06T06:49:57.726Z,10.46
2023-01-06T06:51:01.788Z,10.53
2023-01-06T06:52:04.450Z,10.56
2023-01-06T06:53:06.302Z,10.69
2023-01-06T06:54:08.761Z,10.61
2023-01-06T06:55:11.215Z,10.69
2023-01-06T06:56:14.091Z,10.74
2023-01-06T06:57:16.569Z,10.56
2023-01-06T06:58:19.418Z,10.59
2023-01-06T06:59:21.844Z,10.53
2023-01-06T07:00:23.604Z,10.27
2023-01-06T07:01:26.224Z,10.33
2023-01-06T07:02:27.905Z,10.19
2023-01-06T07:03:30.417Z,10.19
2023-01-06T07:04:32.982Z,10.20
2023-01-06T07:05:34.894Z,10.28
2023-01-06T07:06:37.404Z,10.09
2023-01-06T07:07:38.957Z,10.22
2023-01-06T07:08:44.471Z,10.34
2023-01-06T07:09:46.051Z,10.36
2023-01-06T07:10:48.575Z,10.20
2023-01-06T07:11:50.118Z,10.40
2023-01-06T07:12:52.596Z,10.51
2023-01-06T07:13:55.827Z,10.55
2023-01-06T07:14:58.315Z,10.49
2023-01-06T07:15:59.918Z,10.84
2023-01-06T07:17:02.898Z,11.02
2023-01-06T07:18:05.815Z,11.03
2023-01-06T07:19:09.636Z,10.80
2023-01-06T07:20:11.716Z,10.76
2023-01-06T07:21:14.191Z,10.59
2023-01-06T07:22:16.666Z,10.74
2023-01-06T07:23:18.292Z,10.87
2023-01-06T07:24:20.737Z,10.78
2023-01-06T07:25:23.449Z,10.62
2023-01-06T07:26:25.909Z,10.57
2023-01-06T07:27:27.432Z,10.71
2023-01-06T07:28:32.018Z,10.62
2023-01-06T07:29:34.855Z,10.76
2023-01-06T07:30:38.649Z,10.86
2023-01-06T07:31:40.166Z,10.88
2023-01-06T07:32:42.717Z,10.85
2023-01-06T07:33:45.254Z,10.96
2023-01-06T07:34:46.760Z,10.83
2023-01-06T07:35:53.447Z,10.87
2023-01-06T07:36:55.078Z,11.00
2023-01-06T07:38:03.396Z,11.08
2023-01-06T07:39:05.038Z,11.24
2023-01-06T07:40:08.480Z,11.31
2023-01-06T07:41:11.207Z,11.35
2023-01-06T07:42:12.862Z,11.34
2023-01-06T07:43:15.372Z,11.40
2023-01-06T07:44:18.120Z,11.45
2023-01-06T07:45:21.064Z,11.43
2023-01-06T07:46:25.149Z,11.42
2023-01-06T07:47:26.780Z,11.41
2023-01-06T07:48:29.269Z,11.50
2023-01-06T07:49:30.809Z,11.65
2023-01-06T07:50:33.801Z,11.47
2023-01-06T07:51:35.299Z,11.63
2023-01-06T07:52:37.844Z,11.57
2023-01-06T07:53:39.357Z,11.38
2023-01-06T07:54:41.857Z,11.31
2023-01-06T07:55:51.151Z,11.36
2023-01-06T07:56:52.727Z,11.23
2023-01-06T07:57:55.589Z,11.26
2023-01-06T07:58:57.148Z,11.19
2023-01-06T07:59:59.589Z,11.37
2023-01-06T08:01:06.672Z,11.13
2023-01-06T08:02:11.507Z,10.85
2023-01-06T08:03:13.193Z,10.94
2023-01-06T08:04:15.817Z,10.79
2023-01-06T08:05:17.410Z,11.03
2023-01-06T08:06:19.885Z,11.05
2023-01-06T08:07:22.351Z,10.84
2023-01-06T08:08:24.869Z,10.75
2023-01-06T08:09:26.501Z,10.47
2023-01-06T08:10:28.927Z,10.16
2023-01-06T08:11:30.444Z,10.17
2023-01-06T08:12:32.984Z,10.18
2023-01-06T08:13:34.707Z,10.24
2023-01-06T08:14:37.187Z,10.34
2023-01-06T08:15:39.426Z,10.55
2023-01-06T08:16:43.419Z,10.62
2023-01-06T08:17:44.998Z,10.66
2023-01-06T08:18:47.961Z,10.58
2023-01-06T08:19:49.733Z,10.74
2023-01-06T08:20:52.390Z,10.74
2023-01-06T08:21:53.877Z,10.62
2023-01-06T08:22:56.457Z,10.57
2023-01-06T08:23:58.935Z,10.54
2023-01-06T08:25:00.637Z,10.72
2023-01-06T08:26:04.957Z,10.76
2023-01-06T08:27:06.462Z,10.58
2023-01-06T08:28:08.948Z,10.73
2023-01-06T08:29:11.560Z,10.78
2023-01-06T08:30:13.551Z,10.73
2023-01-06T08:31:18.691Z,10.75
2023-01-06T08:32:21.800Z,10.84
2023-01-06T08:33:25.887Z,10.87
2023-01-06T08:34:28.500Z,10.94
2023-01-06T08:35:30.996Z,11.03
2023-01-06T08:36:33.503Z,11.04
2023-01-06T08:37:35.844Z,11.04
2023-01-06T08:38:38.536Z,11.17
2023-01-06T08:39:40.117Z,11.16
2023-01-06T08:40:42.601Z,11.21
2023-01-06T08:41:44.213Z,11.10
2023-01-06T08:42:46.965Z,11.31
2023-01-06T08:43:49.982Z,11.22
2023-01-06T08:44:52.509Z,11.24
2023-01-06T08:45:58.783Z,11.14
2023-01-06T08:47:01.291Z,11.31
2023-01-06T08:48:04.484Z,11.44
2023-01-06T08:49:07.143Z,11.33
2023-01-06T08:50:10.194Z,11.35
2023-01-06T08:51:14.343Z,11.07
2023-01-06T08:52:16.911Z,11.02
2023-01-06T08:53:19.422Z,11.03
2023-01-06T08:54:21.352Z,10.93
2023-01-06T08:55:23.914Z,10.97
2023-01-06T08:56:28.062Z,11.19
2023-01-06T08:57:30.554Z,11.28
2023-01-06T08:58:33.011Z,11.29
2023-01-06T08:59:35.599Z,10.85
2023-01-06T09:00:41.536Z,11.00
2023-01-06T09:01:45.235Z,11.14
2023-01-06T09:02:48.010Z,11.24
2023-01-06T09:03:51.712Z,11.35
2023-01-06T09:04:56.222Z,11.43
2023-01-06T09:05:58.506Z,11.36
2023-01-06T09:07:01.031Z,11.20
2023-01-06T09:08:02.854Z,11.10
2023-01-06T09:09:06.282Z,11.33
2023-01-06T09:10:08.671Z,11.41
2023-01-06T09:11:12.467Z,11.62
2023-01-06T09:12:14.934Z,11.38
2023-01-06T09:13:17.558Z,11.13
2023-01-06T09:14:20.388Z,11.17
2023-01-06T09:15:21.985Z,11.17
2023-01-06T09:16:24.612Z,11.22
2023-01-06T09:17:26.250Z,11.36
2023-01-06T09:18:28.988Z,11.29
2023-01-06T09:19:32.829Z,11.33
2023-01-06T09:20:34.528Z,11.08
2023-01-06T09:21:37.573Z,11.15
2023-01-06T09:22:40.136Z,11.13
2023-01-06T09:23:41.730Z,11.27
2023-01-06T09:24:44.281Z,11.28
2023-01-06T09:25:45.779Z,11.11
2023-01-06T09:26:49.650Z,10.94
2023-01-06T09:27:51.353Z,10.68
2023-01-06T09:28:53.945Z,10.98
2023-01-06T09:29:55.441Z,11.00
2023-01-06T09:30:57.873Z,11.05
2023-01-06T09:32:00.345Z,11.25
2023-01-06T09:33:01.899Z,11.17
2023-01-06T09:34:04.492Z,11.36
2023-01-06T09:35:10.016Z,11.42
2023-01-06T09:36:27.416Z,11.19
2023-01-06T09:37:28.945Z,11.00
2023-01-06T09:38:31.479Z,11.04
2023-01-06T09:39:33.071Z,10.83
2023-01-06T09:40:46.009Z,10.85
2023-01-06T09:42:06.091Z,10.91
2023-01-06T09:43:20.623Z,10.87
2023-01-06T09:44:29.688Z,10.94
2023-01-06T09:45:39.215Z,10.97
2023-01-06T09:46:44.056Z,10.87
2023-01-06T09:47:52.340Z,10.96
2023-01-06T09:49:03.119Z,11.01
2023-01-06T09:50:10.791Z,11.05
2023-01-06T09:51:20.002Z,11.08
2023-01-06T09:52:29.775Z,11.21
2023-01-06T09:53:35.601Z,11.26
2023-01-06T09:54:45.007Z,11.25
2023-01-06T09:55:50.364Z,11.25
2023-01-06T09:56:56.703Z,11.26
2023-01-06T09:58:01.762Z,11.31
2023-01-06T09:59:09.228Z,11.29
2023-01-06T10:00:20.997Z,11.32
2023-01-06T10:01:31.616Z,11.46
2023-01-06T10:02:37.813Z,11.28
2023-01-06T10:03:40.567Z,11.41
2023-01-06T10:04:42.392Z,11.42
2023-01-06T10:05:58.230Z,11.41
2023-01-06T10:07:14.302Z,11.56
2023-01-06T10:08:25.800Z,11.75
2023-01-06T10:09:33.174Z,11.95
2023-01-06T10:10:45.131Z,11.75
2023-01-06T10:11:57.383Z,11.65
2023-01-06T10:13:12.010Z,11.63
2023-01-06T10:14:21.550Z,11.84
2023-01-06T10:15:34.454Z,12.14
2023-01-06T10:16:53.140Z,12.16
2023-01-06T10:18:26.606Z,11.94
2023-01-06T10:19:36.611Z,11.99
2023-01-06T10:20:51.117Z,12.01
2023-01-06T10:22:04.402Z,12.22
2023-01-06T10:23:12.525Z,12.54
2023-01-06T10:24:29.458Z,12.89
2023-01-06T10:25:35.247Z,13.05
2023-01-06T10:26:43.697Z,12.88
2023-01-06T10:27:54.461Z,12.88
2023-01-06T10:29:00.129Z,12.94
2023-01-06T10:30:07.132Z,13.07
2023-01-06T10:31:13.413Z,13.18
2023-01-06T10:32:17.091Z,13.33
2023-01-06T10:34:35.756Z,13.28
2023-01-06T10:35:38.388Z,13.30
2023-01-06T10:36:46.198Z,13.64
2023-01-06T10:37:50.359Z,13.79
2023-01-06T10:38:54.374Z,13.67
2023-01-06T10:40:01.544Z,13.49
2023-01-06T10:41:14.684Z,13.03
2023-01-06T10:42:43.475Z,13.04
2023-01-06T10:43:45.924Z,13.04
2023-01-06T10:44:48.472Z,12.94
2023-01-06T10:45:51.516Z,12.78
2023-01-06T10:46:53.089Z,12.58
2023-01-06T10:47:56.232Z,12.27
2023-01-06T10:48:58.693Z,12.28
2023-01-06T10:50:00.746Z,12.44
2023-01-06T10:51:21.530Z,12.50
2023-01-06T10:52:26.335Z,12.60
2023-01-06T10:53:28.785Z,12.87
2023-01-06T10:54:33.767Z,12.82
2023-01-06T10:55:40.618Z,12.74
2023-01-06T10:56:48.049Z,12.57
2023-01-06T10:57:52.067Z,12.61
2023-01-06T10:58:58.613Z,12.69
2023-01-06T11:00:14.044Z,12.80
2023-01-06T11:01:18.576Z,13.07
2023-01-06T11:02:22.439Z,13.10
2023-01-06T11:03:33.285Z,13.25
2023-01-06T11:04:41.712Z,13.08
2023-01-06T11:05:43.352Z,13.07
2023-01-06T11:06:49.686Z,12.81
2023-01-06T11:07:59.472Z,12.75
2023-01-06T11:09:08.591Z,12.80
2023-01-06T11:10:26.586Z,12.44
2023-01-06T11:11:29.584Z,12.72
2023-01-06T11:12:32.441Z,12.86
2023-01-06T11:13:35.991Z,12.85
2023-01-06T11:14:40.494Z,12.74
2023-01-06T11:15:42.769Z,12.71
2023-01-06T11:16:56.027Z,12.71
2023-01-06T11:17:57.608Z,12.78
2023-01-06T11:19:03.829Z,12.89
2023-01-06T11:20:09.529Z,13.05
2023-01-06T11:21:14.420Z,12.43
2023-01-06T11:22:33.921Z,12.54
2023-01-06T11:23:41.148Z,12.75
2023-01-06T11:24:52.701Z,12.58
2023-01-06T11:26:07.111Z,12.75
2023-01-06T11:27:17.466Z,12.60
2023-01-06T11:28:20.570Z,12.64
2023-01-06T11:29:28.458Z,12.30
2023-01-06T11:30:30.188Z,12.45
2023-01-06T11:31:32.792Z,12.67
2023-01-06T11:32:34.728Z,12.61
2023-01-06T11:33:47.827Z,12.58
2023-01-06T11:34:55.392Z,12.65
2023-01-06T11:35:57.747Z,12.63
2023-01-06T11:37:00.963Z,12.67
2023-01-06T11:38:02.560Z,12.74
2023-01-06T11:39:16.152Z,12.64
2023-01-06T11:40:23.360Z,12.61
2023-01-06T11:41:29.898Z,12.63
2023-01-06T11:42:31.466Z,12.57
2023-01-06T11:43:33.975Z,12.55
2023-01-06T11:44:38.571Z,12.28
2023-01-06T11:45:46.964Z,12.71
2023-01-06T11:46:52.977Z,12.88
2023-01-06T11:47:55.937Z,13.40
2023-01-06T11:49:04.447Z,14.52
2023-01-06T11:50:08.586Z,15.54
2023-01-06T11:51:10.656Z,16.81
2023-01-06T11:52:24.205Z,17.28
2023-01-06T11:53:26.611Z,17.60
2023-01-06T11:54:37.936Z,18.28
2023-01-06T11:55:56.459Z,18.46
2023-01-06T11:57:16.234Z,19.43
2023-01-06T11:58:26.397Z,20.23
2023-01-06T11:59:38.476Z,20.44
2023-01-06T12:00:52.576Z,19.92
2023-01-06T12:01:58.184Z,19.43
2023-01-06T12:03:09.561Z,19.59
2023-01-06T12:04:20.633Z,20.29
2023-01-06T12:05:29.093Z,21.14
2023-01-06T12:06:37.053Z,21.26
2023-01-06T12:07:43.188Z,21.28
2023-01-06T12:08:52.734Z,21.89
2023-01-06T12:10:02.678Z,21.44
2023-01-06T12:11:13.319Z,21.68
2023-01-06T12:12:21.442Z,22.04
2023-01-06T12:13:23.740Z,22.58
2023-01-06T12:14:30.540Z,22.44
2023-01-06T12:15:35.480Z,22.82
2023-01-06T12:16:40.944Z,20.38
2023-01-06T12:17:50.637Z,19.44
2023-01-06T12:18:53.859Z,18.97
2023-01-06T12:20:01.347Z,18.67
2023-01-06T12:21:05.377Z,19.76
2023-01-06T12:22:20.337Z,20.39
2023-01-06T12:23:27.252Z,20.08
2023-01-06T12:24:32.144Z,20.39
2023-01-06T12:25:39.921Z,18.58
2023-01-06T12:26:43.423Z,18.76
2023-01-06T12:27:51.639Z,18.07
2023-01-06T12:28:58.308Z,17.50
2023-01-06T12:30:03.800Z,17.34
2023-01-06T12:31:11.981Z,17.39
2023-01-06T12:32:20.267Z,17.83
2023-01-06T12:33:30.219Z,16.78
2023-01-06T12:34:38.607Z,16.90
2023-01-06T12:35:44.925Z,16.96
2023-01-06T12:36:52.003Z,16.67
2023-01-06T12:37:57.982Z,16.40
2023-01-06T12:39:04.148Z,16.07
2023-01-06T12:40:13.462Z,15.74
2023-01-06T12:41:23.541Z,15.50
2023-01-06T12:42:30.652Z,15.20
2023-01-06T12:43:38.155Z,14.68
2023-01-06T12:44:46.361Z,14.47
2023-01-06T12:45:57.965Z,14.32
2023-01-06T12:47:05.331Z,14.37
2023-01-06T12:48:17.660Z,14.39
2023-01-06T12:49:30.676Z,13.97
2023-01-06T12:50:39.867Z,13.75
2023-01-06T12:51:46.389Z,13.67
2023-01-06T12:52:51.438Z,13.64
2023-01-06T12:53:58.504Z,13.47
2023-01-06T12:55:01.959Z,13.41
2023-01-06T12:56:22.843Z,13.42
2023-01-06T12:57:39.217Z,13.21
2023-01-06T12:58:51.079Z,13.01
2023-01-06T13:00:13.720Z,13.02
2023-01-06T13:01:21.521Z,13.11
2023-01-06T13:02:42.774Z,12.86
2023-01-06T13:04:01.257Z,12.80
2023-01-06T13:05:43.255Z,12.62
2023-01-06T13:07:02.372Z,12.62
2023-01-06T13:08:23.499Z,12.50
2023-01-06T13:09:41.331Z,12.52
2023-01-06T13:10:47.289Z,12.47
2023-01-06T13:12:07.358Z,12.29
2023-01-06T13:13:38.380Z,12.20
2023-01-06T13:14:44.851Z,12.23
2023-01-06T13:15:47.811Z,12.23
2023-01-06T13:16:57.014Z,12.17
2023-01-06T13:18:11.879Z,12.07
2023-01-06T13:19:27.588Z,12.22
2023-01-06T13:20:35.787Z,12.35
2023-01-06T13:21:40.401Z,12.58
2023-01-06T13:22:55.669Z,12.65
2023-01-06T13:24:12.280Z,12.38
2023-01-06T13:25:37.504Z,12.63
2023-01-06T13:27:07.007Z,12.67
2023-01-06T13:28:19.762Z,12.44
2023-01-06T13:29:37.531Z,12.53
2023-01-06T13:31:07.906Z,12.48
2023-01-06T13:32:26.666Z,12.61
2023-01-06T13:33:56.494Z,12.80
2023-01-06T13:35:33.700Z,12.83
2023-01-06T13:37:12.724Z,13.05
2023-01-06T13:38:33.786Z,12.90
2023-01-06T13:39:37.992Z,12.84
2023-01-06T13:40:40.635Z,12.65
2023-01-06T13:41:46.759Z,12.36
2023-01-06T13:42:58.944Z,12.49
2023-01-06T13:44:01.875Z,12.60
2023-01-06T13:45:08.741Z,12.59
2023-01-06T13:46:15.220Z,12.49
2023-01-06T13:47:23.190Z,12.44
2023-01-06T13:48:28.844Z,12.44
2023-01-06T13:49:32.772Z,12.58
2023-01-06T13:50:37.752Z,12.56
2023-01-06T13:51:45.508Z,12.45
2023-01-06T13:52:50.071Z,12.50
2023-01-06T13:53:54.778Z,12.46
2023-01-06T13:55:02.618Z,12.52
2023-01-06T13:56:27.447Z,12.48
2023-01-06T13:57:33.585Z,12.51
2023-01-06T13:58:38.776Z,12.50
2023-01-06T13:59:49.791Z,12.40
2023-01-06T14:01:07.250Z,12.47
2023-01-06T14:02:48.337Z,12.51
2023-01-06T14:03:52.729Z,12.19
2023-01-06T14:04:54.282Z,12.12
2023-01-06T14:05:58.907Z,12.17
2023-01-06T14:07:00.942Z,12.18
2023-01-06T14:08:05.392Z,12.40
2023-01-06T14:09:18.938Z,12.56
2023-01-06T14:10:34.379Z,12.45
2023-01-06T14:11:39.292Z,12.52
2023-01-06T14:12:48.474Z,12.43
2023-01-06T14:13:55.076Z,12.42
2023-01-06T14:15:01.344Z,12.54